Hugo, Missouri
Current Conditions -  °F | °C
As of 11:35 AM on Tuesday 21 Oct 2014 (Local Time) from KH21 Reporting Station
Clear Clear  
Wind Chill: 64°   Ceiling: Unl
Heat Index: 64°   Visibility: 10mi
Dew Point: 46°   Wind: 0mph
Humidity: 52%   Direction: NA
Pressure: 30.16"   Gusts: NA
Location:  38.0483°N, 92.6543°W
Report Text: KH21 211635Z AUTO 00000KT 10SM CLR 18/08 A3016 RMK AO2
Loading
Personal Weather Stations






























Interactive Weather Map
Tropical Storm Tracking
New forecast layout! Learn more

10-Day Weather Forecast

Advertisements
Track Severe Weather on mobile